sensor_id;sensor_type;location;lat;lon;timestamp;temperature;humidity
45311;SHT31;68264;51.540;5.854;2023-04-21T00:05:52;7.9;87.6
45311;SHT31;68264;51.540;5.854;2023-04-21T00:19:51;7.9;88.1
45311;SHT31;68264;51.540;5.854;2023-04-21T00:33:50;7.9;88.2
45311;SHT31;68264;51.540;5.854;2023-04-21T00:48:18;7.9;88.7
45311;SHT31;68264;51.540;5.854;2023-04-21T01:03:07;7.9;88.8
45311;SHT31;68264;51.540;5.854;2023-04-21T01:17:26;7.9;88.7
45311;SHT31;68264;51.540;5.854;2023-04-21T01:32:58;8.0;88.8
45311;SHT31;68264;51.540;5.854;2023-04-21T01:48:57;8.0;88.4
45311;SHT31;68264;51.540;5.854;2023-04-21T02:03:17;7.9;89.0
45311;SHT31;68264;51.540;5.854;2023-04-21T02:17:45;7.8;89.5
45311;SHT31;68264;51.540;5.854;2023-04-21T02:32:33;7.7;90.4
45311;SHT31;68264;51.540;5.854;2023-04-21T02:48:25;7.9;90.5
45311;SHT31;68264;51.540;5.854;2023-04-21T03:04:24;7.8;90.6
45311;SHT31;68264;51.540;5.854;2023-04-21T03:18:44;7.7;90.5
45311;SHT31;68264;51.540;5.854;2023-04-21T03:32:42;7.6;90.6
45311;SHT31;68264;51.540;5.854;2023-04-21T03:46:42;7.5;90.2
45311;SHT31;68264;51.540;5.854;2023-04-21T04:01:10;7.3;90.3
45311;SHT31;68264;51.540;5.854;2023-04-21T04:16:30;7.2;90.1
45311;SHT31;68264;51.540;5.854;2023-04-21T04:31:30;7.1;90.3
45311;SHT31;68264;51.540;5.854;2023-04-21T04:45:29;7.1;90.5
45311;SHT31;68264;51.540;5.854;2023-04-21T04:59:28;7.1;90.5
45311;SHT31;68264;51.540;5.854;2023-04-21T05:13:56;7.2;90.7
45311;SHT31;68264;51.540;5.854;2023-04-21T05:28:15;7.3;90.6
45311;SHT31;68264;51.540;5.854;2023-04-21T05:42:14;7.5;91.4
45311;SHT31;68264;51.540;5.854;2023-04-21T05:56:13;8.0;91.7
45311;SHT31;68264;51.540;5.854;2023-04-21T06:10:12;8.3;91.4
45311;SHT31;68264;51.540;5.854;2023-04-21T06:25:12;8.6;91.8
45311;SHT31;68264;51.540;5.854;2023-04-21T06:40:12;9.1;91.4
45311;SHT31;68264;51.540;5.854;2023-04-21T06:54:11;9.7;90.9
45311;SHT31;68264;51.540;5.854;2023-04-21T07:08:39;10.2;89.1
45311;SHT31;68264;51.540;5.854;2023-04-21T07:22:58;10.1;85.5
45311;SHT31;68264;51.540;5.854;2023-04-21T07:36:57;11.3;82.6
45311;SHT31;68264;51.540;5.854;2023-04-21T07:51:25;11.6;77.6
45311;SHT31;68264;51.540;5.854;2023-04-21T08:05:45;12.1;78.5
45311;SHT31;68264;51.540;5.854;2023-04-21T08:19:44;12.6;73.9
45311;SHT31;68264;51.540;5.854;2023-04-21T08:33:43;13.3;72.9
45311;SHT31;68264;51.540;5.854;2023-04-21T08:47:42;14.0;70.9
45311;SHT31;68264;51.540;5.854;2023-04-21T09:01:41;14.3;69.6
45311;SHT31;68264;51.540;5.854;2023-04-21T09:15:40;13.9;71.4
45311;SHT31;68264;51.540;5.854;2023-04-21T09:29:39;13.8;71.4
45311;SHT31;68264;51.540;5.854;2023-04-21T09:43:38;13.8;72.0
45311;SHT31;68264;51.540;5.854;2023-04-21T09:58:06;14.8;70.0
45311;SHT31;68264;51.540;5.854;2023-04-21T10:12:25;15.0;69.1
45311;SHT31;68264;51.540;5.854;2023-04-21T10:26:24;14.8;69.8
45311;SHT31;68264;51.540;5.854;2023-04-21T10:40:53;16.3;67.9
45311;SHT31;68264;51.540;5.854;2023-04-21T10:55:12;16.5;67.2
45311;SHT31;68264;51.540;5.854;2023-04-21T11:09:11;16.5;68.1
45311;SHT31;68264;51.540;5.854;2023-04-21T11:23:39;16.9;65.0
45311;SHT31;68264;51.540;5.854;2023-04-21T11:38:59;17.2;67.0
45311;SHT31;68264;51.540;5.854;2023-04-21T11:53:59;16.1;65.8
45311;SHT31;68264;51.540;5.854;2023-04-21T12:07:58;16.8;65.5
45311;SHT31;68264;51.540;5.854;2023-04-21T12:21:57;16.1;66.8
45311;SHT31;68264;51.540;5.854;2023-04-21T12:35:56;16.3;67.3
45311;SHT31;68264;51.540;5.854;2023-04-21T12:49:55;16.4;64.4
45311;SHT31;68264;51.540;5.854;2023-04-21T13:04:23;17.5;64.3
45311;SHT31;68264;51.540;5.854;2023-04-21T13:18:42;17.6;66.5
45311;SHT31;68264;51.540;5.854;2023-04-21T13:33:10;17.5;64.0
45311;SHT31;68264;51.540;5.854;2023-04-21T13:48:31;17.5;67.1
45311;SHT31;68264;51.540;5.854;2023-04-21T14:03:59;17.5;63.9
45311;SHT31;68264;51.540;5.854;2023-04-21T14:18:19;18.1;62.0
45311;SHT31;68264;51.540;5.854;2023-04-21T14:32:18;18.0;61.2
45311;SHT31;68264;51.540;5.854;2023-04-21T14:47:18;18.1;59.7
45311;SHT31;68264;51.540;5.854;2023-04-21T15:16:17;18.2;61.8
45311;SHT31;68264;51.540;5.854;2023-04-21T15:30:16;18.0;60.7
45311;SHT31;68264;51.540;5.854;2023-04-21T15:44:15;18.4;55.1
45311;SHT31;68264;51.540;5.854;2023-04-21T15:58:14;17.2;58.5
45311;SHT31;68264;51.540;5.854;2023-04-21T16:12:42;17.1;60.1
45311;SHT31;68264;51.540;5.854;2023-04-21T16:27:30;17.0;59.4
45311;SHT31;68264;51.540;5.854;2023-04-21T16:42:18;17.0;58.5
45311;SHT31;68264;51.540;5.854;2023-04-21T16:56:38;16.7;60.3
45311;SHT31;68264;51.540;5.854;2023-04-21T17:10:37;13.7;68.2
45311;SHT31;68264;51.540;5.854;2023-04-21T17:25:05;12.6;74.5
45311;SHT31;68264;51.540;5.854;2023-04-21T17:39:53;11.4;80.6
45311;SHT31;68264;51.540;5.854;2023-04-21T17:54:41;11.5;75.3
45311;SHT31;68264;51.540;5.854;2023-04-21T18:09:01;11.4;76.0
45311;SHT31;68264;51.540;5.854;2023-04-21T18:23:00;11.4;76.9
45311;SHT31;68264;51.540;5.854;2023-04-21T18:38:00;11.0;81.2
45311;SHT31;68264;51.540;5.854;2023-04-21T18:52:59;10.7;83.0
45311;SHT31;68264;51.540;5.854;2023-04-21T19:07:28;10.5;84.5
45311;SHT31;68264;51.540;5.854;2023-04-21T19:24:24;10.7;85.0
45311;SHT31;68264;51.540;5.854;2023-04-21T19:40:55;10.5;86.3
45311;SHT31;68264;51.540;5.854;2023-04-21T19:54:54;10.4;85.3
45311;SHT31;68264;51.540;5.854;2023-04-21T20:09:22;10.9;80.1
45311;SHT31;68264;51.540;5.854;2023-04-21T20:23:41;11.3;79.8
45311;SHT31;68264;51.540;5.854;2023-04-21T20:37:40;11.5;76.7
45311;SHT31;68264;51.540;5.854;2023-04-21T20:51:39;11.6;72.6
45311;SHT31;68264;51.540;5.854;2023-04-21T21:05:38;11.2;75.3
45311;SHT31;68264;51.540;5.854;2023-04-21T21:19:37;11.1;76.7
45311;SHT31;68264;51.540;5.854;2023-04-21T21:33:36;11.1;77.2
45311;SHT31;68264;51.540;5.854;2023-04-21T21:47:35;10.5;78.8
45311;SHT31;68264;51.540;5.854;2023-04-21T22:01:34;9.7;83.7
45311;SHT31;68264;51.540;5.854;2023-04-21T22:15:33;9.5;84.2
